createdAt,value
2022-07-30T00:00:47.834Z,951.3
2022-07-30T00:01:49.432Z,951.3
2022-07-30T00:02:53.883Z,951.3
2022-07-30T00:03:55.686Z,951.2
2022-07-30T00:04:57.610Z,951.3
2022-07-30T00:05:59.264Z,951.3
2022-07-30T00:07:02.648Z,951.2
2022-07-30T00:08:07.663Z,951.2
2022-07-30T00:09:09.292Z,951.2
2022-07-30T00:10:10.954Z,951.2
2022-07-30T00:11:12.606Z,951.2
2022-07-30T00:12:14.543Z,951.2
2022-07-30T00:13:16.085Z,951.2
2022-07-30T00:14:17.623Z,951.2
2022-07-30T00:15:19.180Z,951.2
2022-07-30T00:16:21.049Z,951.2
2022-07-30T00:17:22.883Z,951.2
2022-07-30T00:18:25.449Z,951.2
2022-07-30T00:19:31.788Z,951.2
2022-07-30T00:20:33.331Z,951.1
2022-07-30T00:21:39.585Z,951.1
2022-07-30T00:22:41.247Z,951.1
2022-07-30T00:24:02.679Z,951.1
2022-07-30T00:25:04.264Z,951.1
2022-07-30T00:26:07.578Z,951
2022-07-30T00:27:09.112Z,951
2022-07-30T00:28:10.767Z,951.1
2022-07-30T00:29:12.517Z,951.1
2022-07-30T00:30:16.707Z,951.1
2022-07-30T00:31:18.560Z,951.1
2022-07-30T00:32:20.405Z,951.1
2022-07-30T00:33:22.080Z,951.1
2022-07-30T00:34:23.636Z,951.1
2022-07-30T00:35:28.114Z,951.1
2022-07-30T00:36:29.687Z,951.1
2022-07-30T00:37:31.424Z,951.1
2022-07-30T00:38:33.012Z,951.1
2022-07-30T00:39:34.573Z,951.1
2022-07-30T00:40:36.224Z,951.1
2022-07-30T00:41:37.877Z,951.1
2022-07-30T00:42:39.641Z,951.1
2022-07-30T00:43:41.204Z,951.1
2022-07-30T00:44:42.830Z,951
2022-07-30T00:45:44.788Z,951.1
2022-07-30T00:46:46.576Z,951.1
2022-07-30T00:47:48.161Z,951.1
2022-07-30T00:48:50.138Z,951.1
2022-07-30T00:49:51.856Z,951
2022-07-30T00:50:53.495Z,951
2022-07-30T00:51:55.372Z,951
2022-07-30T00:52:56.940Z,951.1
2022-07-30T00:53:58.543Z,951
2022-07-30T00:55:00.097Z,951
2022-07-30T00:56:01.845Z,951
2022-07-30T00:57:03.989Z,951
2022-07-30T00:58:05.646Z,950.9
2022-07-30T00:59:07.189Z,951
2022-07-30T01:00:08.927Z,951
2022-07-30T01:01:10.901Z,950.9
2022-07-30T01:02:13.099Z,950.9
2022-07-30T01:03:15.001Z,950.9
2022-07-30T01:04:16.594Z,950.9
2022-07-30T01:05:18.141Z,950.9
2022-07-30T01:06:19.834Z,950.9
2022-07-30T01:07:27.532Z,950.9
2022-07-30T01:08:29.265Z,950.9
2022-07-30T01:09:30.831Z,950.9
2022-07-30T01:10:32.369Z,950.9
2022-07-30T01:11:33.900Z,950.9
2022-07-30T01:12:35.525Z,950.9
2022-07-30T01:13:37.195Z,950.8
2022-07-30T01:14:38.732Z,950.9
2022-07-30T01:15:40.373Z,950.8
2022-07-30T01:16:42.432Z,950.9
2022-07-30T01:17:53.285Z,950.8
2022-07-30T01:18:55.123Z,950.8
2022-07-30T01:19:56.659Z,950.9
2022-07-30T01:20:58.255Z,950.8
2022-07-30T01:21:59.876Z,950.8
2022-07-30T01:23:01.393Z,950.8
2022-07-30T01:24:02.929Z,950.9
2022-07-30T01:25:04.499Z,950.9
2022-07-30T01:26:06.059Z,950.9
2022-07-30T01:27:07.693Z,950.9
2022-07-30T01:28:09.219Z,951
2022-07-30T01:29:10.857Z,951
2022-07-30T01:30:12.438Z,950.9
2022-07-30T01:31:17.066Z,950.9
2022-07-30T01:32:18.905Z,950.9
2022-07-30T01:33:20.454Z,950.9
2022-07-30T01:34:21.993Z,950.9
2022-07-30T01:35:23.545Z,950.9
2022-07-30T01:36:25.263Z,950.9
2022-07-30T01:37:26.887Z,950.9
2022-07-30T01:38:35.605Z,950.9
2022-07-30T01:39:37.184Z,950.9
2022-07-30T01:40:38.807Z,950.9
2022-07-30T01:41:40.416Z,950.9
2022-07-30T01:42:41.961Z,950.9
2022-07-30T01:43:43.651Z,950.9
2022-07-30T01:44:45.224Z,950.9
2022-07-30T01:45:47.142Z,950.9
2022-07-30T01:46:48.827Z,950.9
2022-07-30T01:47:50.325Z,950.8
2022-07-30T01:48:52.085Z,950.9
2022-07-30T01:49:53.787Z,950.8
2022-07-30T01:50:55.461Z,950.9
2022-07-30T01:51:57.160Z,950.9
2022-07-30T01:52:58.766Z,950.8
2022-07-30T01:54:00.370Z,950.8
2022-07-30T01:55:02.021Z,950.8
2022-07-30T01:56:04.192Z,950.8
2022-07-30T01:57:06.315Z,950.9
2022-07-30T01:58:07.906Z,950.8
2022-07-30T01:59:09.630Z,950.8
2022-07-30T02:00:11.385Z,950.9
2022-07-30T02:01:13.245Z,950.9
2022-07-30T02:02:18.557Z,950.8
2022-07-30T02:03:22.652Z,950.9
2022-07-30T02:04:24.461Z,950.8
2022-07-30T02:05:26.066Z,950.8
2022-07-30T02:06:27.729Z,950.8
2022-07-30T02:07:29.410Z,950.8
2022-07-30T02:08:30.920Z,950.8
2022-07-30T02:09:32.446Z,950.8
2022-07-30T02:10:34.090Z,950.8
2022-07-30T02:11:35.739Z,950.9
2022-07-30T02:12:37.277Z,950.8
2022-07-30T02:13:38.871Z,950.8
2022-07-30T02:14:40.514Z,950.8
2022-07-30T02:15:42.111Z,950.8
2022-07-30T02:16:43.968Z,950.8
2022-07-30T02:17:47.231Z,950.8
2022-07-30T02:18:50.250Z,950.8
2022-07-30T02:19:52.484Z,950.8
2022-07-30T02:20:56.685Z,950.7
2022-07-30T02:21:58.329Z,950.7
2022-07-30T02:22:59.847Z,950.7
2022-07-30T02:24:01.519Z,950.7
2022-07-30T02:25:03.163Z,950.7
2022-07-30T02:26:04.813Z,950.7
2022-07-30T02:27:06.455Z,950.7
2022-07-30T02:28:08.069Z,950.7
2022-07-30T02:29:12.081Z,950.7
2022-07-30T02:30:13.621Z,950.7
2022-07-30T02:31:18.378Z,950.7
2022-07-30T02:32:20.215Z,950.7
2022-07-30T02:33:21.859Z,950.7
2022-07-30T02:34:23.506Z,950.6
2022-07-30T02:35:25.106Z,950.6
2022-07-30T02:36:26.782Z,950.6
2022-07-30T02:37:44.704Z,950.6
2022-07-30T02:38:46.657Z,950.7
2022-07-30T02:39:48.528Z,950.6
2022-07-30T02:40:50.128Z,950.6
2022-07-30T02:41:51.671Z,950.6
2022-07-30T02:42:53.213Z,950.6
2022-07-30T02:43:54.982Z,950.6
2022-07-30T02:44:56.529Z,950.6
2022-07-30T02:45:58.170Z,950.6
2022-07-30T02:47:05.417Z,950.6
2022-07-30T02:48:07.705Z,950.6
2022-07-30T02:49:09.713Z,950.7
2022-07-30T02:50:11.571Z,950.6
2022-07-30T02:51:13.220Z,950.6
2022-07-30T02:52:14.898Z,950.6
2022-07-30T02:53:16.468Z,950.6
2022-07-30T02:54:18.107Z,950.6
2022-07-30T02:55:19.838Z,950.6
2022-07-30T02:56:21.497Z,950.6
2022-07-30T02:57:23.105Z,950.6
2022-07-30T02:58:24.695Z,950.6
2022-07-30T02:59:26.317Z,950.6
2022-07-30T03:00:28.210Z,950.6
2022-07-30T03:01:29.885Z,950.6
2022-07-30T03:02:32.122Z,950.6
2022-07-30T03:03:33.946Z,950.6
2022-07-30T03:04:37.226Z,950.6
2022-07-30T03:05:38.874Z,950.6
2022-07-30T03:06:40.458Z,950.6
2022-07-30T03:07:42.141Z,950.6
2022-07-30T03:08:43.664Z,950.6
2022-07-30T03:09:52.903Z,950.6
2022-07-30T03:10:54.568Z,950.6
2022-07-30T03:11:56.188Z,950.6
2022-07-30T03:12:57.720Z,950.5
2022-07-30T03:13:59.403Z,950.5
2022-07-30T03:15:01.008Z,950.5
2022-07-30T03:16:02.821Z,950.5
2022-07-30T03:17:04.751Z,950.5
2022-07-30T03:18:06.492Z,950.5
2022-07-30T03:19:08.033Z,950.5
2022-07-30T03:20:09.680Z,950.5
2022-07-30T03:21:11.208Z,950.5
2022-07-30T03:22:12.773Z,950.5
2022-07-30T03:23:14.416Z,950.5
2022-07-30T03:24:16.145Z,950.5
2022-07-30T03:25:17.753Z,950.5
2022-07-30T03:26:19.295Z,950.5
2022-07-30T03:27:20.874Z,950.5
2022-07-30T03:28:22.625Z,950.5
2022-07-30T03:29:24.285Z,950.5
2022-07-30T03:30:25.828Z,950.5
2022-07-30T03:31:38.240Z,950.5
2022-07-30T03:32:43.259Z,950.5
2022-07-30T03:33:47.457Z,950.5
2022-07-30T03:34:49.592Z,950.6
2022-07-30T03:35:51.226Z,950.6
2022-07-30T03:36:52.882Z,950.6
2022-07-30T03:37:54.460Z,950.6
2022-07-30T03:38:55.994Z,950.6
2022-07-30T03:39:57.577Z,950.6
2022-07-30T03:40:59.122Z,950.6
2022-07-30T03:42:01.517Z,950.6
2022-07-30T03:43:34.287Z,950.6
2022-07-30T03:44:36.044Z,950.6
2022-07-30T03:45:37.585Z,950.6
2022-07-30T03:46:39.579Z,950.6
2022-07-30T03:47:41.284Z,950.7
2022-07-30T03:48:43.145Z,950.6
2022-07-30T03:49:44.858Z,950.7
2022-07-30T03:50:46.508Z,950.7
2022-07-30T03:51:48.400Z,950.6
2022-07-30T03:52:50.008Z,950.6
2022-07-30T03:53:51.785Z,950.6
2022-07-30T03:54:53.536Z,950.6
2022-07-30T03:55:55.166Z,950.6
2022-07-30T03:56:56.813Z,950.6
2022-07-30T03:57:58.572Z,950.6
2022-07-30T03:59:00.100Z,950.6
2022-07-30T04:00:01.646Z,950.7
2022-07-30T04:01:03.164Z,950.6
2022-07-30T04:02:07.928Z,950.7
2022-07-30T04:03:09.595Z,950.6
2022-07-30T04:04:11.549Z,950.6
2022-07-30T04:05:13.551Z,950.6
2022-07-30T04:06:15.095Z,950.6
2022-07-30T04:07:16.845Z,950.7
2022-07-30T04:08:18.717Z,950.7
2022-07-30T04:09:22.828Z,950.7
2022-07-30T04:10:24.366Z,950.7
2022-07-30T04:11:42.268Z,950.7
2022-07-30T04:12:43.835Z,950.7
2022-07-30T04:13:45.445Z,950.7
2022-07-30T04:14:46.984Z,950.7
2022-07-30T04:16:42.611Z,950.7
2022-07-30T04:17:46.306Z,950.7
2022-07-30T04:18:48.066Z,950.7
2022-07-30T04:19:49.764Z,950.7
2022-07-30T04:20:51.306Z,950.7
2022-07-30T04:21:52.949Z,950.7
2022-07-30T04:22:54.492Z,950.7
2022-07-30T04:24:05.979Z,950.7
2022-07-30T04:25:07.644Z,950.6
2022-07-30T04:26:09.420Z,950.7
2022-07-30T04:27:11.035Z,950.7
2022-07-30T04:28:12.684Z,950.7
2022-07-30T04:29:25.006Z,950.7
2022-07-30T04:30:26.750Z,950.7
2022-07-30T04:31:28.969Z,950.7
2022-07-30T04:32:30.905Z,950.7
2022-07-30T04:33:32.562Z,950.7
2022-07-30T04:34:34.330Z,950.7
2022-07-30T04:35:52.669Z,950.7
2022-07-30T04:36:54.329Z,950.7
2022-07-30T04:37:55.914Z,950.7
2022-07-30T04:38:57.528Z,950.7
2022-07-30T04:39:59.317Z,950.7
2022-07-30T04:41:00.860Z,950.7
2022-07-30T04:42:02.401Z,950.7
2022-07-30T04:43:03.998Z,950.7
2022-07-30T04:44:05.621Z,950.7
2022-07-30T04:45:07.401Z,950.7
2022-07-30T04:46:09.361Z,950.7
2022-07-30T04:47:11.392Z,950.7
2022-07-30T04:48:12.933Z,950.7
2022-07-30T04:49:14.952Z,950.7
2022-07-30T04:50:17.044Z,950.8
2022-07-30T04:51:18.675Z,950.8
2022-07-30T04:52:20.328Z,950.8
2022-07-30T04:53:21.918Z,950.8
2022-07-30T04:54:23.503Z,950.8
2022-07-30T04:55:25.170Z,950.8
2022-07-30T04:56:26.887Z,950.8
2022-07-30T04:57:28.450Z,950.8
2022-07-30T04:58:29.996Z,950.8
2022-07-30T04:59:31.671Z,950.8
2022-07-30T05:00:41.668Z,950.8
2022-07-30T05:01:43.730Z,950.8
2022-07-30T05:02:45.444Z,950.8
2022-07-30T05:03:46.988Z,950.8
2022-07-30T05:04:48.943Z,950.8
2022-07-30T05:05:57.827Z,950.8
2022-07-30T05:07:00.893Z,950.8
2022-07-30T05:08:02.984Z,950.8
2022-07-30T05:09:04.545Z,950.7
2022-07-30T05:10:06.387Z,950.7
2022-07-30T05:11:08.075Z,950.7
2022-07-30T05:12:09.718Z,950.7
2022-07-30T05:13:13.418Z,950.7
2022-07-30T05:14:16.166Z,950.7
2022-07-30T05:15:17.702Z,950.8
2022-07-30T05:16:19.737Z,950.7
2022-07-30T05:17:21.636Z,950.7
2022-07-30T05:18:23.286Z,950.7
2022-07-30T05:19:25.023Z,950.8
2022-07-30T05:20:27.485Z,950.7
2022-07-30T05:21:30.551Z,950.8
2022-07-30T05:22:32.093Z,950.8
2022-07-30T05:23:33.607Z,950.7
2022-07-30T05:24:35.300Z,950.8
2022-07-30T05:25:36.928Z,950.8
2022-07-30T05:26:38.543Z,950.8
2022-07-30T05:27:41.036Z,950.8
2022-07-30T05:28:53.690Z,950.8
2022-07-30T05:29:58.681Z,950.8
2022-07-30T05:31:01.594Z,950.8
2022-07-30T05:32:10.932Z,950.8
2022-07-30T05:33:16.301Z,950.8
2022-07-30T05:34:18.516Z,950.8
2022-07-30T05:35:20.197Z,950.8
2022-07-30T05:36:21.876Z,950.8
2022-07-30T05:37:23.517Z,950.7
2022-07-30T05:38:29.030Z,950.7
2022-07-30T05:39:30.776Z,950.7
2022-07-30T05:40:32.324Z,950.7
2022-07-30T05:41:33.856Z,950.7
2022-07-30T05:42:35.426Z,950.7
2022-07-30T05:43:36.967Z,950.7
2022-07-30T05:44:38.615Z,950.8
2022-07-30T05:45:40.262Z,950.8
2022-07-30T05:46:42.241Z,950.8
2022-07-30T05:47:43.970Z,950.7
2022-07-30T05:48:45.895Z,950.8
2022-07-30T05:49:48.273Z,950.8
2022-07-30T05:50:49.799Z,950.8
2022-07-30T05:51:51.339Z,950.8
2022-07-30T05:52:53.017Z,950.8
2022-07-30T05:53:54.648Z,950.7
2022-07-30T05:54:56.396Z,950.8
2022-07-30T05:55:57.943Z,950.8
2022-07-30T05:57:00.734Z,950.8
2022-07-30T05:58:02.912Z,950.7
2022-07-30T05:59:04.565Z,950.8
2022-07-30T06:00:06.562Z,950.8
2022-07-30T06:01:08.358Z,950.8
2022-07-30T06:02:10.472Z,950.8
2022-07-30T06:03:12.202Z,950.8
2022-07-30T06:04:14.120Z,950.8
2022-07-30T06:05:15.862Z,950.7
2022-07-30T06:06:23.690Z,950.8
2022-07-30T06:07:25.406Z,950.8
2022-07-30T06:08:26.997Z,950.8
2022-07-30T06:09:37.635Z,950.8
2022-07-30T06:10:39.245Z,950.8
2022-07-30T06:11:40.813Z,950.8
2022-07-30T06:12:42.686Z,950.8
2022-07-30T06:13:44.297Z,950.8
2022-07-30T06:14:45.966Z,950.8
2022-07-30T06:15:47.853Z,950.8
2022-07-30T06:16:49.625Z,950.8
2022-07-30T06:18:02.782Z,950.8
2022-07-30T06:19:04.314Z,950.8
2022-07-30T06:20:06.095Z,950.8
2022-07-30T06:21:07.765Z,950.8
2022-07-30T06:22:09.358Z,950.8
2022-07-30T06:23:11.051Z,950.8
2022-07-30T06:24:12.627Z,950.8
2022-07-30T06:25:19.046Z,950.8
2022-07-30T06:26:20.651Z,950.8
2022-07-30T06:27:22.256Z,950.8
2022-07-30T06:28:40.231Z,950.8
2022-07-30T06:29:42.001Z,950.8
2022-07-30T06:30:43.905Z,950.8
2022-07-30T06:31:45.636Z,950.8
2022-07-30T06:32:49.259Z,950.8
2022-07-30T06:33:50.845Z,950.8
2022-07-30T06:35:05.236Z,950.7
2022-07-30T06:36:06.961Z,950.8
2022-07-30T06:37:08.523Z,950.7
2022-07-30T06:38:10.085Z,950.7
2022-07-30T06:39:11.856Z,950.7
2022-07-30T06:40:13.495Z,950.8
2022-07-30T06:41:15.051Z,950.8
2022-07-30T06:42:16.582Z,950.7
2022-07-30T06:43:18.229Z,950.7
2022-07-30T06:44:19.871Z,950.7
2022-07-30T06:45:21.407Z,950.7
2022-07-30T06:46:23.372Z,950.7
2022-07-30T06:47:25.320Z,950.6
2022-07-30T06:48:26.974Z,950.7
2022-07-30T06:49:28.601Z,950.7
2022-07-30T06:50:33.202Z,950.7
2022-07-30T06:51:34.809Z,950.6
2022-07-30T06:52:36.353Z,950.6
2022-07-30T06:53:43.276Z,950.6
2022-07-30T06:54:44.973Z,950.6
2022-07-30T06:55:46.537Z,950.6
2022-07-30T06:56:49.114Z,950.6
2022-07-30T06:57:50.776Z,950.6
2022-07-30T06:58:52.422Z,950.6
2022-07-30T06:59:57.942Z,950.6
2022-07-30T07:00:59.930Z,950.6
2022-07-30T07:02:01.863Z,950.6
2022-07-30T07:03:03.713Z,950.6
2022-07-30T07:04:06.386Z,950.6
2022-07-30T07:05:08.103Z,950.6
2022-07-30T07:06:09.662Z,950.5
2022-07-30T07:07:13.838Z,950.5
2022-07-30T07:08:15.731Z,950.5
2022-07-30T07:09:17.273Z,950.4
2022-07-30T07:10:18.869Z,950.4
2022-07-30T07:11:20.651Z,950.4
2022-07-30T07:12:22.185Z,950.4
2022-07-30T07:13:23.860Z,950.4
2022-07-30T07:14:25.451Z,950.4
2022-07-30T07:15:37.881Z,950.4
2022-07-30T07:16:39.751Z,950.4
2022-07-30T07:17:41.475Z,950.4
2022-07-30T07:18:43.140Z,950.4
2022-07-30T07:20:02.999Z,950.3
2022-07-30T07:21:04.706Z,950.4
2022-07-30T07:22:06.236Z,950.3
2022-07-30T07:23:13.973Z,950.3
2022-07-30T07:24:15.924Z,950.3
2022-07-30T07:25:17.573Z,950.3
2022-07-30T07:26:19.192Z,950.3
2022-07-30T07:27:20.762Z,950.3
2022-07-30T07:28:33.974Z,950.3
2022-07-30T07:29:36.134Z,950.3
2022-07-30T07:30:38.107Z,950.3
2022-07-30T07:32:08.342Z,950.3
2022-07-30T07:33:10.267Z,950.3
2022-07-30T07:34:17.528Z,950.3
2022-07-30T07:35:19.062Z,950.3
2022-07-30T07:36:20.729Z,950.3
2022-07-30T07:37:22.269Z,950.3
2022-07-30T07:38:24.014Z,950.3
2022-07-30T07:39:25.715Z,950.3
2022-07-30T07:40:27.397Z,950.3
2022-07-30T07:41:49.380Z,950.3
2022-07-30T07:42:51.170Z,950.3
2022-07-30T07:43:52.778Z,950.2
2022-07-30T07:44:54.508Z,950.2
2022-07-30T07:45:56.222Z,950.3
2022-07-30T07:46:58.824Z,950.2
2022-07-30T07:48:00.895Z,950.3
2022-07-30T07:49:02.839Z,950.2
2022-07-30T07:50:04.762Z,950.2
2022-07-30T07:51:10.085Z,950.2
2022-07-30T07:52:11.815Z,950.2
2022-07-30T07:53:13.361Z,950.2
2022-07-30T07:54:23.616Z,950.2
2022-07-30T07:55:25.795Z,950.2
2022-07-30T07:56:28.168Z,950.2
2022-07-30T07:57:31.918Z,950.2
2022-07-30T07:58:40.735Z,950.2
2022-07-30T07:59:42.359Z,950.2
2022-07-30T08:00:43.939Z,950.2
2022-07-30T08:01:45.693Z,950.2
2022-07-30T08:02:47.659Z,950.2
2022-07-30T08:03:49.331Z,950.1
2022-07-30T08:04:50.934Z,950.1
2022-07-30T08:06:08.946Z,950.1
2022-07-30T08:07:16.755Z,950.1
2022-07-30T08:08:18.387Z,950.1
2022-07-30T08:09:20.058Z,950.1
2022-07-30T08:10:21.686Z,950.1
2022-07-30T08:11:23.329Z,950.1
2022-07-30T08:12:24.867Z,950.1
2022-07-30T08:13:53.361Z,950.1
2022-07-30T08:14:55.033Z,950.1
2022-07-30T08:15:56.638Z,950.1
2022-07-30T08:16:58.402Z,950.1
2022-07-30T08:18:00.177Z,950.1
2022-07-30T08:19:01.750Z,950.1
2022-07-30T08:20:03.496Z,950.1
2022-07-30T08:21:05.173Z,950
2022-07-30T08:22:06.729Z,950.1
2022-07-30T08:23:08.400Z,950.1
2022-07-30T08:24:09.932Z,950.1
2022-07-30T08:25:24.857Z,950.1
2022-07-30T08:26:26.606Z,950.1
2022-07-30T08:27:30.182Z,950.1
2022-07-30T08:28:37.149Z,950.1
2022-07-30T08:29:38.777Z,950.1
2022-07-30T08:30:40.543Z,950
2022-07-30T08:31:42.186Z,950
2022-07-30T08:32:43.847Z,950
2022-07-30T08:33:45.460Z,950
2022-07-30T08:34:47.135Z,950
2022-07-30T08:36:09.310Z,950
2022-07-30T08:37:14.781Z,950
2022-07-30T08:38:16.402Z,950
2022-07-30T08:39:17.971Z,950
2022-07-30T08:40:19.691Z,950
2022-07-30T08:41:21.462Z,950
2022-07-30T08:42:23.130Z,950
2022-07-30T08:43:25.025Z,950
2022-07-30T08:44:26.563Z,950
2022-07-30T08:45:35.619Z,950
2022-07-30T08:46:37.150Z,949.9
2022-07-30T08:47:38.826Z,949.9
2022-07-30T08:48:40.692Z,949.9
2022-07-30T08:49:42.524Z,949.9
2022-07-30T08:50:44.220Z,949.9
2022-07-30T08:51:45.880Z,950
2022-07-30T08:52:47.669Z,949.9
2022-07-30T08:53:49.311Z,949.9
2022-07-30T08:54:50.964Z,949.9
2022-07-30T08:55:59.039Z,949.9
2022-07-30T08:57:04.781Z,949.9
2022-07-30T08:58:06.534Z,949.9
2022-07-30T08:59:08.165Z,949.9
2022-07-30T09:00:09.838Z,949.9
2022-07-30T09:01:11.486Z,949.8
2022-07-30T09:02:14.237Z,949.8
2022-07-30T09:03:15.856Z,949.8
2022-07-30T09:04:17.524Z,949.8
2022-07-30T09:05:19.275Z,949.8
2022-07-30T09:06:21.042Z,949.7
2022-07-30T09:07:22.679Z,949.7
2022-07-30T09:08:26.894Z,949.7
2022-07-30T09:09:32.405Z,949.7
2022-07-30T09:10:34.027Z,949.6
2022-07-30T09:11:35.608Z,949.6
2022-07-30T09:12:37.350Z,949.7
2022-07-30T09:13:38.984Z,949.5
2022-07-30T09:14:40.535Z,949.6
2022-07-30T09:15:42.072Z,949.6
2022-07-30T09:16:43.739Z,949.6
2022-07-30T09:17:45.356Z,949.5
2022-07-30T09:18:46.918Z,949.6
2022-07-30T09:19:48.481Z,949.5
2022-07-30T09:20:50.012Z,949.5
2022-07-30T09:21:51.758Z,949.5
2022-07-30T09:22:53.410Z,949.5
2022-07-30T09:23:55.144Z,949.5
2022-07-30T09:24:56.778Z,949.5
2022-07-30T09:25:58.444Z,949.4
2022-07-30T09:27:01.144Z,949.4
2022-07-30T09:28:17.297Z,949.4
2022-07-30T09:29:19.049Z,949.4
2022-07-30T09:30:21.214Z,949.4
2022-07-30T09:31:23.060Z,949.4
2022-07-30T09:32:25.002Z,949.4
2022-07-30T09:33:30.132Z,949.4
2022-07-30T09:34:31.828Z,949.4
2022-07-30T09:35:33.468Z,949.4
2022-07-30T09:36:35.251Z,949.4
2022-07-30T09:37:36.863Z,949.4
2022-07-30T09:38:38.402Z,949.4
2022-07-30T09:39:59.941Z,949.3
2022-07-30T09:41:38.563Z,949.3
2022-07-30T09:42:41.553Z,949.4
2022-07-30T09:43:43.097Z,949.4
2022-07-30T09:44:44.631Z,949.4
2022-07-30T09:45:58.145Z,949.4
2022-07-30T09:46:59.782Z,949.3
2022-07-30T09:48:01.458Z,949.3
2022-07-30T09:49:03.451Z,949.3
2022-07-30T09:50:08.153Z,949.3
2022-07-30T09:51:18.369Z,949.3
2022-07-30T09:52:57.681Z,949.2
2022-07-30T09:54:00.572Z,949.2
2022-07-30T09:55:03.941Z,949.2
2022-07-30T09:56:06.449Z,949.3
2022-07-30T09:57:28.690Z,949.2
2022-07-30T09:58:30.691Z,949.2
2022-07-30T09:59:35.628Z,949.2
2022-07-30T10:00:37.365Z,949.2
2022-07-30T10:02:01.239Z,949.2
2022-07-30T10:03:41.821Z,949.2
2022-07-30T10:04:44.558Z,949.2
2022-07-30T10:05:48.776Z,949.2
2022-07-30T10:06:50.420Z,949.2
2022-07-30T10:07:52.769Z,949.2
2022-07-30T10:08:54.411Z,949.2
2022-07-30T10:09:57.009Z,949.1
2022-07-30T10:11:09.993Z,949.1
2022-07-30T10:12:14.777Z,949
2022-07-30T10:13:21.271Z,949
2022-07-30T10:14:32.640Z,949
2022-07-30T10:15:36.924Z,949
2022-07-30T10:16:39.031Z,949
2022-07-30T10:17:42.833Z,949
2022-07-30T10:18:45.267Z,949
2022-07-30T10:19:49.392Z,948.9
2022-07-30T10:20:51.756Z,948.9
2022-07-30T10:21:53.691Z,948.9
2022-07-30T10:22:56.049Z,948.9
2022-07-30T10:23:58.011Z,948.9
2022-07-30T10:24:59.883Z,948.9
2022-07-30T10:26:04.170Z,948.9
2022-07-30T10:27:08.261Z,948.9
2022-07-30T10:28:09.918Z,948.9
2022-07-30T10:29:16.254Z,948.9
2022-07-30T10:30:29.405Z,948.8
2022-07-30T10:31:54.782Z,948.8
2022-07-30T10:32:57.455Z,948.8
2022-07-30T10:33:59.107Z,948.8
2022-07-30T10:35:00.939Z,948.8
2022-07-30T10:36:04.425Z,948.8
2022-07-30T10:37:08.146Z,948.8
2022-07-30T10:38:14.475Z,948.8
2022-07-30T10:39:16.122Z,948.8
2022-07-30T10:40:17.956Z,948.8
2022-07-30T10:41:48.575Z,948.8
2022-07-30T10:42:56.200Z,948.8
2022-07-30T10:43:58.028Z,948.7
2022-07-30T10:45:01.043Z,948.7
2022-07-30T10:46:22.224Z,948.7
2022-07-30T10:47:38.927Z,948.6
2022-07-30T10:48:52.064Z,948.7
2022-07-30T10:49:54.794Z,948.6
2022-07-30T10:50:57.697Z,948.6
2022-07-30T10:51:59.382Z,948.6
2022-07-30T10:53:00.978Z,948.6
2022-07-30T10:54:02.629Z,948.6
2022-07-30T10:55:05.398Z,948.6
2022-07-30T10:56:10.107Z,948.6
2022-07-30T10:57:32.530Z,948.5
2022-07-30T10:58:50.965Z,948.6
2022-07-30T10:59:57.400Z,948.6
2022-07-30T11:01:02.466Z,948.6
2022-07-30T11:02:06.504Z,948.5
2022-07-30T11:03:16.385Z,948.6
2022-07-30T11:04:21.001Z,948.6
2022-07-30T11:05:46.196Z,948.5
2022-07-30T11:06:49.174Z,948.6
2022-07-30T11:07:51.856Z,948.6
2022-07-30T11:08:58.718Z,948.5
2022-07-30T11:10:10.085Z,948.5
2022-07-30T11:11:20.737Z,948.5
2022-07-30T11:13:08.094Z,948.4
2022-07-30T11:14:13.123Z,948.4
2022-07-30T11:15:20.150Z,948.4
2022-07-30T11:16:23.536Z,948.4
2022-07-30T11:17:25.816Z,948.4
2022-07-30T11:18:29.184Z,948.3
2022-07-30T11:20:02.278Z,948.4
2022-07-30T11:21:06.478Z,948.4
2022-07-30T11:22:11.525Z,948.3
2022-07-30T11:23:14.594Z,948.3
2022-07-30T11:24:22.485Z,948.2
2022-07-30T11:25:55.245Z,948.3
2022-07-30T11:26:56.927Z,948.3
2022-07-30T11:27:58.620Z,948.3
2022-07-30T11:29:00.557Z,948.3
2022-07-30T11:30:02.062Z,948.3
2022-07-30T11:31:11.041Z,948.3
2022-07-30T11:32:14.154Z,948.2
2022-07-30T11:33:16.510Z,948.2
2022-07-30T11:34:18.124Z,948.1
2022-07-30T11:35:23.874Z,948.1
2022-07-30T11:36:25.635Z,948.1
2022-07-30T11:37:32.811Z,948.1
2022-07-30T11:38:41.199Z,948.1
2022-07-30T11:39:43.047Z,948.1
2022-07-30T11:40:46.637Z,948.1
2022-07-30T11:41:48.185Z,948.2
2022-07-30T11:42:49.827Z,948.2
2022-07-30T11:43:51.432Z,948.1
2022-07-30T11:44:53.085Z,948.1
2022-07-30T11:45:54.681Z,948.2
2022-07-30T11:46:56.210Z,948.2
2022-07-30T11:47:57.748Z,948.1
2022-07-30T11:48:59.519Z,948.1
2022-07-30T11:50:01.445Z,948.1
2022-07-30T11:51:04.422Z,948.1
2022-07-30T11:52:06.024Z,948
2022-07-30T11:53:07.649Z,948
2022-07-30T11:54:09.175Z,947.9
2022-07-30T11:55:10.819Z,947.9
2022-07-30T11:56:15.108Z,947.9
2022-07-30T11:57:16.759Z,948
2022-07-30T11:58:18.366Z,947.9
2022-07-30T11:59:19.908Z,947.9
2022-07-30T12:00:21.515Z,947.9
2022-07-30T12:01:23.136Z,947.9
2022-07-30T12:02:24.679Z,947.9
2022-07-30T12:03:30.233Z,947.9
2022-07-30T12:04:31.835Z,947.9
2022-07-30T12:05:33.413Z,947.9
2022-07-30T12:06:35.070Z,947.9
2022-07-30T12:07:36.698Z,947.8
2022-07-30T12:08:38.347Z,947.8
2022-07-30T12:09:44.140Z,947.8
2022-07-30T12:10:47.578Z,947.7
2022-07-30T12:11:49.231Z,947.7
2022-07-30T12:12:50.955Z,947.7
2022-07-30T12:13:54.052Z,947.7
2022-07-30T12:15:02.354Z,947.7
2022-07-30T12:16:03.991Z,947.7
2022-07-30T12:17:15.614Z,947.7
2022-07-30T12:18:27.345Z,947.8
2022-07-30T12:19:29.048Z,947.8
2022-07-30T12:20:48.718Z,947.8
2022-07-30T12:21:54.087Z,947.7
2022-07-30T12:22:55.625Z,947.7
2022-07-30T12:23:57.747Z,947.7
2022-07-30T12:24:59.411Z,947.7
2022-07-30T12:26:01.100Z,947.7
2022-07-30T12:27:04.078Z,947.7
2022-07-30T12:28:06.825Z,947.7
2022-07-30T12:29:08.376Z,947.6
2022-07-30T12:30:10.243Z,947.6
2022-07-30T12:31:14.630Z,947.6
2022-07-30T12:32:16.287Z,947.6
2022-07-30T12:33:17.822Z,947.6
2022-07-30T12:34:19.583Z,947.6
2022-07-30T12:35:21.215Z,947.5
2022-07-30T12:36:22.920Z,947.5
2022-07-30T12:37:24.518Z,947.5
2022-07-30T12:38:26.063Z,947.5
2022-07-30T12:39:27.705Z,947.4
2022-07-30T12:40:29.315Z,947.4
2022-07-30T12:41:30.851Z,947.3
2022-07-30T12:42:32.644Z,947.3
2022-07-30T12:43:34.247Z,947.4
2022-07-30T12:44:35.929Z,947.3
2022-07-30T12:45:54.732Z,947.2
2022-07-30T12:46:56.287Z,947.3
2022-07-30T12:47:57.829Z,947.3
2022-07-30T12:49:39.621Z,947.2
2022-07-30T12:50:52.557Z,947.2
2022-07-30T12:52:00.952Z,947.2
2022-07-30T12:53:02.570Z,947.2
2022-07-30T12:54:04.358Z,947.2
2022-07-30T12:55:06.004Z,947.2
2022-07-30T12:56:07.595Z,947.2
2022-07-30T12:57:09.208Z,947.2
2022-07-30T12:58:10.753Z,947.1
2022-07-30T12:59:12.302Z,947.1
2022-07-30T13:00:14.039Z,947.1
2022-07-30T13:01:15.987Z,947.1
2022-07-30T13:02:17.665Z,947.1
2022-07-30T13:03:19.351Z,947.1
2022-07-30T13:04:20.922Z,947.1
2022-07-30T13:05:22.656Z,947
2022-07-30T13:06:24.223Z,947
2022-07-30T13:07:25.787Z,947
2022-07-30T13:08:27.439Z,947
2022-07-30T13:09:29.021Z,947
2022-07-30T13:10:32.043Z,947
2022-07-30T13:11:33.990Z,947
2022-07-30T13:12:35.610Z,946.9
2022-07-30T13:13:37.224Z,947
2022-07-30T13:14:38.768Z,946.9
2022-07-30T13:15:54.656Z,946.9
2022-07-30T13:16:56.303Z,946.9
2022-07-30T13:17:58.700Z,946.9
2022-07-30T13:19:00.239Z,946.9
2022-07-30T13:20:01.807Z,946.9
2022-07-30T13:21:03.704Z,946.9
2022-07-30T13:22:05.277Z,946.8
2022-07-30T13:23:07.007Z,946.8
2022-07-30T13:24:18.491Z,946.8
2022-07-30T13:25:20.204Z,946.8
2022-07-30T13:26:21.862Z,946.8
2022-07-30T13:27:23.530Z,946.8
2022-07-30T13:28:25.168Z,946.7
2022-07-30T13:29:26.826Z,946.8
2022-07-30T13:30:28.465Z,946.8
2022-07-30T13:31:43.826Z,946.7
2022-07-30T13:32:45.571Z,946.8
2022-07-30T13:33:47.312Z,946.8
2022-07-30T13:34:49.055Z,946.8
2022-07-30T13:35:50.766Z,946.8
2022-07-30T13:36:52.459Z,946.8
2022-07-30T13:37:54.015Z,946.8
2022-07-30T13:38:55.701Z,946.8
2022-07-30T13:39:57.395Z,946.8
2022-07-30T13:41:03.429Z,946.8
2022-07-30T13:42:05.014Z,946.8
2022-07-30T13:43:06.556Z,946.8